sensor_id;sensor_type;location;lat;lon;timestamp;temperature;humidity
35668;DHT22;22158;59.280;17.806;2022-09-09T00:04:37;10.60;99.90
35668;DHT22;22158;59.280;17.806;2022-09-09T00:07:37;10.60;99.90
35668;DHT22;22158;59.280;17.806;2022-09-09T00:18:27;10.60;99.90
35668;DHT22;22158;59.280;17.806;2022-09-09T00:21:14;10.60;99.90
35668;DHT22;22158;59.280;17.806;2022-09-09T00:23:54;10.60;99.90
35668;DHT22;22158;59.280;17.806;2022-09-09T00:26:33;10.60;99.90
35668;DHT22;22158;59.280;17.806;2022-09-09T00:29:14;10.60;99.90
35668;DHT22;22158;59.280;17.806;2022-09-09T00:31:44;10.60;99.90
35668;DHT22;22158;59.280;17.806;2022-09-09T00:34:17;10.70;99.90
35668;DHT22;22158;59.280;17.806;2022-09-09T00:36:43;10.70;99.90
35668;DHT22;22158;59.280;17.806;2022-09-09T00:39:36;10.70;99.90
35668;DHT22;22158;59.280;17.806;2022-09-09T00:42:09;10.70;99.90
35668;DHT22;22158;59.280;17.806;2022-09-09T00:44:38;10.80;99.90
35668;DHT22;22158;59.280;17.806;2022-09-09T00:47:25;10.80;99.90
35668;DHT22;22158;59.280;17.806;2022-09-09T00:57:34;10.80;99.90
35668;DHT22;22158;59.280;17.806;2022-09-09T01:00:26;10.90;99.90
35668;DHT22;22158;59.280;17.806;2022-09-09T01:05:35;10.90;99.90
35668;DHT22;22158;59.280;17.806;2022-09-09T01:08:27;11.00;99.90
35668;DHT22;22158;59.280;17.806;2022-09-09T01:10:56;11.00;99.90
35668;DHT22;22158;59.280;17.806;2022-09-09T01:13:35;11.10;99.90
35668;DHT22;22158;59.280;17.806;2022-09-09T01:16:08;11.10;99.90
35668;DHT22;22158;59.280;17.806;2022-09-09T01:18:40;11.10;99.90
35668;DHT22;22158;59.280;17.806;2022-09-09T01:26:37;11.20;99.90
35668;DHT22;22158;59.280;17.806;2022-09-09T01:29:09;11.10;99.90
35668;DHT22;22158;59.280;17.806;2022-09-09T01:32:02;11.10;99.90
35668;DHT22;22158;59.280;17.806;2022-09-09T01:34:33;11.20;99.90
35668;DHT22;22158;59.280;17.806;2022-09-09T01:37:04;11.20;99.90
35668;DHT22;22158;59.280;17.806;2022-09-09T01:39:32;11.20;99.90
35668;DHT22;22158;59.280;17.806;2022-09-09T01:41:59;11.20;99.90
35668;DHT22;22158;59.280;17.806;2022-09-09T01:44:25;11.20;99.90
35668;DHT22;22158;59.280;17.806;2022-09-09T01:46:51;11.30;99.90
35668;DHT22;22158;59.280;17.806;2022-09-09T01:49:17;11.30;99.90
35668;DHT22;22158;59.280;17.806;2022-09-09T01:51:44;11.30;99.90
35668;DHT22;22158;59.280;17.806;2022-09-09T01:54:10;11.40;99.90
35668;DHT22;22158;59.280;17.806;2022-09-09T02:02:02;11.50;99.90
35668;DHT22;22158;59.280;17.806;2022-09-09T02:07:11;11.60;99.90
35668;DHT22;22158;59.280;17.806;2022-09-09T02:09:41;11.60;99.90
35668;DHT22;22158;59.280;17.806;2022-09-09T02:12:14;11.60;99.90
35668;DHT22;22158;59.280;17.806;2022-09-09T02:14:48;11.60;99.90
35668;DHT22;22158;59.280;17.806;2022-09-09T02:17:19;11.60;99.90
35668;DHT22;22158;59.280;17.806;2022-09-09T02:19:51;11.60;99.90
35668;DHT22;22158;59.280;17.806;2022-09-09T02:22:22;11.60;99.90
35668;DHT22;22158;59.280;17.806;2022-09-09T02:24:49;11.60;99.90
35668;DHT22;22158;59.280;17.806;2022-09-09T02:27:18;11.60;99.90
35668;DHT22;22158;59.280;17.806;2022-09-09T02:29:45;11.60;99.90
35668;DHT22;22158;59.280;17.806;2022-09-09T02:32:17;11.60;99.90
35668;DHT22;22158;59.280;17.806;2022-09-09T02:34:50;11.60;99.90
35668;DHT22;22158;59.280;17.806;2022-09-09T02:37:19;11.60;99.90
35668;DHT22;22158;59.280;17.806;2022-09-09T02:39:46;11.60;99.90
35668;DHT22;22158;59.280;17.806;2022-09-09T02:42:12;11.70;99.90
35668;DHT22;22158;59.280;17.806;2022-09-09T02:44:40;11.60;99.90
35668;DHT22;22158;59.280;17.806;2022-09-09T02:47:20;11.60;99.90
35668;DHT22;22158;59.280;17.806;2022-09-09T02:52:19;11.70;99.90
35668;DHT22;22158;59.280;17.806;2022-09-09T02:54:49;11.70;99.90
35668;DHT22;22158;59.280;17.806;2022-09-09T02:57:30;11.70;99.90
35668;DHT22;22158;59.280;17.806;2022-09-09T02:59:59;11.80;99.90
35668;DHT22;22158;59.280;17.806;2022-09-09T03:02:26;11.80;99.90
35668;DHT22;22158;59.280;17.806;2022-09-09T03:04:52;11.80;99.90
35668;DHT22;22158;59.280;17.806;2022-09-09T03:07:19;11.80;99.90
35668;DHT22;22158;59.280;17.806;2022-09-09T03:09:45;11.80;99.90
35668;DHT22;22158;59.280;17.806;2022-09-09T03:12:11;11.80;99.90
35668;DHT22;22158;59.280;17.806;2022-09-09T03:14:37;11.70;99.90
35668;DHT22;22158;59.280;17.806;2022-09-09T03:17:04;11.70;99.90
35668;DHT22;22158;59.280;17.806;2022-09-09T03:19:30;11.70;99.90
35668;DHT22;22158;59.280;17.806;2022-09-09T03:21:57;11.70;99.90
35668;DHT22;22158;59.280;17.806;2022-09-09T03:24:24;11.70;99.90
35668;DHT22;22158;59.280;17.806;2022-09-09T03:26:50;11.60;99.90
35668;DHT22;22158;59.280;17.806;2022-09-09T03:29:16;11.60;99.90
35668;DHT22;22158;59.280;17.806;2022-09-09T03:31:43;11.60;99.90
35668;DHT22;22158;59.280;17.806;2022-09-09T03:34:10;11.60;99.90
35668;DHT22;22158;59.280;17.806;2022-09-09T03:36:35;11.70;99.90
35668;DHT22;22158;59.280;17.806;2022-09-09T03:39:01;11.70;99.90
35668;DHT22;22158;59.280;17.806;2022-09-09T03:41:29;11.70;99.90
35668;DHT22;22158;59.280;17.806;2022-09-09T03:43:55;11.70;99.90
35668;DHT22;22158;59.280;17.806;2022-09-09T03:46:22;11.70;99.90
35668;DHT22;22158;59.280;17.806;2022-09-09T03:48:49;11.70;99.90
35668;DHT22;22158;59.280;17.806;2022-09-09T03:51:14;11.70;99.90
35668;DHT22;22158;59.280;17.806;2022-09-09T03:53:41;11.80;99.90
35668;DHT22;22158;59.280;17.806;2022-09-09T03:56:07;11.80;99.90
35668;DHT22;22158;59.280;17.806;2022-09-09T03:58:36;11.80;99.90
35668;DHT22;22158;59.280;17.806;2022-09-09T04:01:11;11.80;99.90
35668;DHT22;22158;59.280;17.806;2022-09-09T04:03:39;11.80;99.90
35668;DHT22;22158;59.280;17.806;2022-09-09T04:06:07;11.80;99.90
35668;DHT22;22158;59.280;17.806;2022-09-09T04:08:35;11.80;99.90
35668;DHT22;22158;59.280;17.806;2022-09-09T04:11:03;11.80;99.90
35668;DHT22;22158;59.280;17.806;2022-09-09T04:13:30;11.80;99.90
35668;DHT22;22158;59.280;17.806;2022-09-09T04:15:58;11.80;99.90
35668;DHT22;22158;59.280;17.806;2022-09-09T04:18:24;11.80;99.90
35668;DHT22;22158;59.280;17.806;2022-09-09T04:20:52;11.80;99.90
35668;DHT22;22158;59.280;17.806;2022-09-09T04:23:18;11.80;99.90
35668;DHT22;22158;59.280;17.806;2022-09-09T04:25:49;11.90;99.90
35668;DHT22;22158;59.280;17.806;2022-09-09T04:28:16;11.90;99.90
35668;DHT22;22158;59.280;17.806;2022-09-09T04:30:43;11.90;99.90
35668;DHT22;22158;59.280;17.806;2022-09-09T04:33:09;11.90;99.90
35668;DHT22;22158;59.280;17.806;2022-09-09T04:35:35;11.90;99.90
35668;DHT22;22158;59.280;17.806;2022-09-09T04:38:01;12.00;99.90
35668;DHT22;22158;59.280;17.806;2022-09-09T04:40:30;12.00;99.90
35668;DHT22;22158;59.280;17.806;2022-09-09T04:42:59;12.00;99.90
35668;DHT22;22158;59.280;17.806;2022-09-09T04:45:25;12.00;99.90
35668;DHT22;22158;59.280;17.806;2022-09-09T04:47:51;12.10;99.90
35668;DHT22;22158;59.280;17.806;2022-09-09T04:50:18;12.00;99.90
35668;DHT22;22158;59.280;17.806;2022-09-09T04:52:44;12.10;99.90
35668;DHT22;22158;59.280;17.806;2022-09-09T04:55:10;12.10;99.90
35668;DHT22;22158;59.280;17.806;2022-09-09T04:57:36;12.10;99.90
35668;DHT22;22158;59.280;17.806;2022-09-09T05:00:03;12.10;99.90
35668;DHT22;22158;59.280;17.806;2022-09-09T05:02:29;12.20;99.90
35668;DHT22;22158;59.280;17.806;2022-09-09T05:04:55;12.20;99.90
35668;DHT22;22158;59.280;17.806;2022-09-09T05:07:21;12.20;99.90
35668;DHT22;22158;59.280;17.806;2022-09-09T05:09:47;12.20;99.90
35668;DHT22;22158;59.280;17.806;2022-09-09T05:12:15;12.20;99.90
35668;DHT22;22158;59.280;17.806;2022-09-09T05:14:42;12.20;99.90
35668;DHT22;22158;59.280;17.806;2022-09-09T05:17:09;12.20;99.90
35668;DHT22;22158;59.280;17.806;2022-09-09T05:19:34;12.20;99.90
35668;DHT22;22158;59.280;17.806;2022-09-09T05:22:00;12.30;99.90
35668;DHT22;22158;59.280;17.806;2022-09-09T05:24:26;12.30;99.90
35668;DHT22;22158;59.280;17.806;2022-09-09T05:26:52;12.30;99.90
35668;DHT22;22158;59.280;17.806;2022-09-09T05:29:18;12.40;99.90
35668;DHT22;22158;59.280;17.806;2022-09-09T05:31:45;12.40;99.90
35668;DHT22;22158;59.280;17.806;2022-09-09T05:34:11;12.40;99.90
35668;DHT22;22158;59.280;17.806;2022-09-09T05:36:37;12.40;99.90
35668;DHT22;22158;59.280;17.806;2022-09-09T05:39:03;12.40;99.90
35668;DHT22;22158;59.280;17.806;2022-09-09T05:41:29;12.50;99.90
35668;DHT22;22158;59.280;17.806;2022-09-09T05:43:54;12.50;99.90
35668;DHT22;22158;59.280;17.806;2022-09-09T05:46:24;12.50;99.90
35668;DHT22;22158;59.280;17.806;2022-09-09T05:48:51;12.50;99.90
35668;DHT22;22158;59.280;17.806;2022-09-09T05:51:19;12.60;99.90
35668;DHT22;22158;59.280;17.806;2022-09-09T05:53:47;12.60;99.90
35668;DHT22;22158;59.280;17.806;2022-09-09T05:56:15;12.60;99.90
35668;DHT22;22158;59.280;17.806;2022-09-09T05:58:42;12.60;99.90
35668;DHT22;22158;59.280;17.806;2022-09-09T06:01:21;12.60;99.90
35668;DHT22;22158;59.280;17.806;2022-09-09T06:03:48;12.70;99.90
35668;DHT22;22158;59.280;17.806;2022-09-09T06:06:19;12.70;99.90
35668;DHT22;22158;59.280;17.806;2022-09-09T06:08:50;12.70;99.70
35668;DHT22;22158;59.280;17.806;2022-09-09T06:11:22;12.70;99.50
35668;DHT22;22158;59.280;17.806;2022-09-09T06:13:49;12.70;99.70
35668;DHT22;22158;59.280;17.806;2022-09-09T06:16:18;12.80;99.70
35668;DHT22;22158;59.280;17.806;2022-09-09T06:18:44;12.80;99.40
35668;DHT22;22158;59.280;17.806;2022-09-09T06:21:15;12.90;99.10
35668;DHT22;22158;59.280;17.806;2022-09-09T06:23:42;12.90;98.90
35668;DHT22;22158;59.280;17.806;2022-09-09T06:26:11;12.90;99.30
35668;DHT22;22158;59.280;17.806;2022-09-09T06:28:37;12.90;99.10
35668;DHT22;22158;59.280;17.806;2022-09-09T06:31:09;13.00;99.10
35668;DHT22;22158;59.280;17.806;2022-09-09T06:33:39;13.10;98.70
35668;DHT22;22158;59.280;17.806;2022-09-09T06:36:17;13.10;98.60
35668;DHT22;22158;59.280;17.806;2022-09-09T06:38:44;13.20;98.30
35668;DHT22;22158;59.280;17.806;2022-09-09T06:41:11;13.20;97.30
35668;DHT22;22158;59.280;17.806;2022-09-09T06:43:38;13.10;97.50
35668;DHT22;22158;59.280;17.806;2022-09-09T06:46:09;13.20;97.20
35668;DHT22;22158;59.280;17.806;2022-09-09T06:48:36;13.10;97.60
35668;DHT22;22158;59.280;17.806;2022-09-09T06:51:10;13.00;98.00
35668;DHT22;22158;59.280;17.806;2022-09-09T06:53:40;12.90;98.30
35668;DHT22;22158;59.280;17.806;2022-09-09T06:58:52;13.00;97.80
35668;DHT22;22158;59.280;17.806;2022-09-09T07:01:20;13.10;97.90
35668;DHT22;22158;59.280;17.806;2022-09-09T07:03:48;13.20;98.10
35668;DHT22;22158;59.280;17.806;2022-09-09T07:06:24;13.30;97.90
35668;DHT22;22158;59.280;17.806;2022-09-09T07:08:55;13.30;97.60
35668;DHT22;22158;59.280;17.806;2022-09-09T07:11:24;13.50;98.10
35668;DHT22;22158;59.280;17.806;2022-09-09T07:13:51;13.60;97.80
35668;DHT22;22158;59.280;17.806;2022-09-09T07:16:18;13.70;97.70
35668;DHT22;22158;59.280;17.806;2022-09-09T07:18:44;13.70;97.70
35668;DHT22;22158;59.280;17.806;2022-09-09T07:21:11;13.80;97.60
35668;DHT22;22158;59.280;17.806;2022-09-09T07:23:38;13.80;97.30
35668;DHT22;22158;59.280;17.806;2022-09-09T07:26:15;13.90;97.60
35668;DHT22;22158;59.280;17.806;2022-09-09T07:28:42;14.00;97.60
35668;DHT22;22158;59.280;17.806;2022-09-09T07:31:14;14.10;97.20
35668;DHT22;22158;59.280;17.806;2022-09-09T07:33:42;14.10;97.00
35668;DHT22;22158;59.280;17.806;2022-09-09T07:36:10;14.00;96.90
35668;DHT22;22158;59.280;17.806;2022-09-09T07:38:43;14.00;96.40
35668;DHT22;22158;59.280;17.806;2022-09-09T07:41:12;14.00;96.60
35668;DHT22;22158;59.280;17.806;2022-09-09T07:43:40;14.20;97.00
35668;DHT22;22158;59.280;17.806;2022-09-09T07:46:06;14.30;97.10
35668;DHT22;22158;59.280;17.806;2022-09-09T07:48:33;14.40;96.40
35668;DHT22;22158;59.280;17.806;2022-09-09T07:51:11;14.40;96.00
35668;DHT22;22158;59.280;17.806;2022-09-09T07:53:38;14.40;96.20
35668;DHT22;22158;59.280;17.806;2022-09-09T07:56:06;14.40;96.10
35668;DHT22;22158;59.280;17.806;2022-09-09T07:58:32;14.40;96.30
35668;DHT22;22158;59.280;17.806;2022-09-09T08:00:57;14.40;96.50
35668;DHT22;22158;59.280;17.806;2022-09-09T08:03:23;14.40;96.70
35668;DHT22;22158;59.280;17.806;2022-09-09T08:05:49;14.40;96.30
35668;DHT22;22158;59.280;17.806;2022-09-09T08:08:15;14.40;96.50
35668;DHT22;22158;59.280;17.806;2022-09-09T08:10:42;14.40;96.00
35668;DHT22;22158;59.280;17.806;2022-09-09T08:13:08;14.50;96.40
35668;DHT22;22158;59.280;17.806;2022-09-09T08:15:34;14.40;96.00
35668;DHT22;22158;59.280;17.806;2022-09-09T08:18:00;14.40;96.20
35668;DHT22;22158;59.280;17.806;2022-09-09T08:20:25;14.50;95.40
35668;DHT22;22158;59.280;17.806;2022-09-09T08:22:51;14.50;95.80
35668;DHT22;22158;59.280;17.806;2022-09-09T08:25:17;14.50;95.70
35668;DHT22;22158;59.280;17.806;2022-09-09T08:27:42;14.50;95.10
35668;DHT22;22158;59.280;17.806;2022-09-09T08:30:09;14.60;95.30
35668;DHT22;22158;59.280;17.806;2022-09-09T08:32:34;14.70;94.70
35668;DHT22;22158;59.280;17.806;2022-09-09T08:35:00;14.80;94.00
35668;DHT22;22158;59.280;17.806;2022-09-09T08:37:26;14.80;93.70
35668;DHT22;22158;59.280;17.806;2022-09-09T08:39:51;14.90;93.30
35668;DHT22;22158;59.280;17.806;2022-09-09T08:42:23;15.00;94.10
35668;DHT22;22158;59.280;17.806;2022-09-09T08:45:55;15.20;94.40
35668;DHT22;22158;59.280;17.806;2022-09-09T08:50:38;15.30;93.40
35668;DHT22;22158;59.280;17.806;2022-09-09T08:58:31;15.30;93.00
35668;DHT22;22158;59.280;17.806;2022-09-09T09:11:38;15.30;92.90
35668;DHT22;22158;59.280;17.806;2022-09-09T09:14:25;15.30;92.70
35668;DHT22;22158;59.280;17.806;2022-09-09T09:16:56;15.30;93.20
35668;DHT22;22158;59.280;17.806;2022-09-09T09:19:23;15.40;93.60
35668;DHT22;22158;59.280;17.806;2022-09-09T09:27:43;15.50;92.70
35668;DHT22;22158;59.280;17.806;2022-09-09T09:32:42;15.90;92.20
35668;DHT22;22158;59.280;17.806;2022-09-09T09:35:13;16.10;92.10
35668;DHT22;22158;59.280;17.806;2022-09-09T09:37:40;16.20;92.30
35668;DHT22;22158;59.280;17.806;2022-09-09T09:40:16;16.20;91.40
35668;DHT22;22158;59.280;17.806;2022-09-09T09:43:01;16.10;91.40
35668;DHT22;22158;59.280;17.806;2022-09-09T09:48:10;16.40;92.30
35668;DHT22;22158;59.280;17.806;2022-09-09T09:50:59;16.50;92.30
35668;DHT22;22158;59.280;17.806;2022-09-09T09:53:28;16.80;91.60
35668;DHT22;22158;59.280;17.806;2022-09-09T09:56:01;16.90;92.10
35668;DHT22;22158;59.280;17.806;2022-09-09T09:58:30;17.10;91.50
35668;DHT22;22158;59.280;17.806;2022-09-09T10:00:57;17.20;92.10
35668;DHT22;22158;59.280;17.806;2022-09-09T10:03:30;17.30;90.30
35668;DHT22;22158;59.280;17.806;2022-09-09T10:05:56;17.20;89.80
35668;DHT22;22158;59.280;17.806;2022-09-09T10:08:26;17.20;90.70
35668;DHT22;22158;59.280;17.806;2022-09-09T10:13:43;17.10;90.30
35668;DHT22;22158;59.280;17.806;2022-09-09T10:19:10;17.00;91.30
35668;DHT22;22158;59.280;17.806;2022-09-09T10:29:59;17.40;91.30
35668;DHT22;22158;59.280;17.806;2022-09-09T10:32:36;17.50;90.70
35668;DHT22;22158;59.280;17.806;2022-09-09T10:35:25;17.60;90.30
35668;DHT22;22158;59.280;17.806;2022-09-09T10:41:18;17.50;90.70
35668;DHT22;22158;59.280;17.806;2022-09-09T10:51:40;17.50;90.00
35668;DHT22;22158;59.280;17.806;2022-09-09T10:54:24;17.40;88.50
35668;DHT22;22158;59.280;17.806;2022-09-09T10:57:04;17.30;89.00
35668;DHT22;22158;59.280;17.806;2022-09-09T10:59:40;17.30;90.20
35668;DHT22;22158;59.280;17.806;2022-09-09T11:02:19;17.00;90.00
35668;DHT22;22158;59.280;17.806;2022-09-09T11:04:58;16.90;90.10
35668;DHT22;22158;59.280;17.806;2022-09-09T11:07:34;16.90;91.50
35668;DHT22;22158;59.280;17.806;2022-09-09T11:10:12;17.00;91.10
35668;DHT22;22158;59.280;17.806;2022-09-09T11:12:39;17.20;90.90
35668;DHT22;22158;59.280;17.806;2022-09-09T11:15:15;17.20;90.20
35668;DHT22;22158;59.280;17.806;2022-09-09T11:17:46;17.20;90.30
35668;DHT22;22158;59.280;17.806;2022-09-09T11:20:15;17.20;89.20
35668;DHT22;22158;59.280;17.806;2022-09-09T11:25:55;17.40;89.20
35668;DHT22;22158;59.280;17.806;2022-09-09T11:38:47;17.70;88.90
35668;DHT22;22158;59.280;17.806;2022-09-09T11:41:14;17.80;90.30
35668;DHT22;22158;59.280;17.806;2022-09-09T11:43:51;17.90;90.10
35668;DHT22;22158;59.280;17.806;2022-09-09T11:46:20;18.10;89.00
35668;DHT22;22158;59.280;17.806;2022-09-09T11:48:58;18.20;89.60
35668;DHT22;22158;59.280;17.806;2022-09-09T11:51:28;18.30;87.70
35668;DHT22;22158;59.280;17.806;2022-09-09T11:54:02;18.40;88.70
35668;DHT22;22158;59.280;17.806;2022-09-09T11:56:48;18.40;87.90
35668;DHT22;22158;59.280;17.806;2022-09-09T11:59:23;18.50;88.40
35668;DHT22;22158;59.280;17.806;2022-09-09T12:04:30;18.70;88.00
35668;DHT22;22158;59.280;17.806;2022-09-09T12:07:33;18.80;87.60
35668;DHT22;22158;59.280;17.806;2022-09-09T12:12:46;18.60;87.20
35668;DHT22;22158;59.280;17.806;2022-09-09T12:17:52;18.60;87.80
35668;DHT22;22158;59.280;17.806;2022-09-09T12:20:26;18.50;88.00
35668;DHT22;22158;59.280;17.806;2022-09-09T12:26:00;18.80;90.10
35668;DHT22;22158;59.280;17.806;2022-09-09T12:28:57;19.10;88.70
35668;DHT22;22158;59.280;17.806;2022-09-09T12:31:44;19.10;88.00
35668;DHT22;22158;59.280;17.806;2022-09-09T12:36:43;19.30;87.90
35668;DHT22;22158;59.280;17.806;2022-09-09T12:39:33;19.30;87.70
35668;DHT22;22158;59.280;17.806;2022-09-09T12:42:01;19.40;87.50
35668;DHT22;22158;59.280;17.806;2022-09-09T12:44:29;19.40;87.20
35668;DHT22;22158;59.280;17.806;2022-09-09T12:46:58;19.20;86.60
35668;DHT22;22158;59.280;17.806;2022-09-09T12:49:36;19.00;85.80
35668;DHT22;22158;59.280;17.806;2022-09-09T12:52:24;19.10;85.80
35668;DHT22;22158;59.280;17.806;2022-09-09T12:54:52;18.80;86.30
35668;DHT22;22158;59.280;17.806;2022-09-09T12:57:20;18.80;87.00
35668;DHT22;22158;59.280;17.806;2022-09-09T12:59:47;18.80;87.40
35668;DHT22;22158;59.280;17.806;2022-09-09T13:02:25;18.90;87.20
35668;DHT22;22158;59.280;17.806;2022-09-09T13:04:52;18.90;86.40
35668;DHT22;22158;59.280;17.806;2022-09-09T13:07:19;18.90;86.90
35668;DHT22;22158;59.280;17.806;2022-09-09T13:09:46;19.00;87.00
35668;DHT22;22158;59.280;17.806;2022-09-09T13:12:20;18.80;86.80
35668;DHT22;22158;59.280;17.806;2022-09-09T13:14:49;19.10;87.80
35668;DHT22;22158;59.280;17.806;2022-09-09T13:17:24;19.30;86.60
35668;DHT22;22158;59.280;17.806;2022-09-09T13:19:51;19.20;85.40
35668;DHT22;22158;59.280;17.806;2022-09-09T13:22:22;19.20;86.50
35668;DHT22;22158;59.280;17.806;2022-09-09T13:25:13;19.50;85.90
35668;DHT22;22158;59.280;17.806;2022-09-09T13:28:02;19.40;85.70
35668;DHT22;22158;59.280;17.806;2022-09-09T13:30:35;19.10;84.30
35668;DHT22;22158;59.280;17.806;2022-09-09T13:35:30;19.00;84.30
35668;DHT22;22158;59.280;17.806;2022-09-09T13:37:57;19.10;85.70
35668;DHT22;22158;59.280;17.806;2022-09-09T13:40:23;19.30;85.50
35668;DHT22;22158;59.280;17.806;2022-09-09T13:42:57;19.30;84.70
35668;DHT22;22158;59.280;17.806;2022-09-09T13:45:25;19.00;84.80
35668;DHT22;22158;59.280;17.806;2022-09-09T13:47:54;18.80;86.10
35668;DHT22;22158;59.280;17.806;2022-09-09T13:50:28;18.80;85.40
35668;DHT22;22158;59.280;17.806;2022-09-09T13:52:58;18.80;85.50
35668;DHT22;22158;59.280;17.806;2022-09-09T13:55:27;18.50;86.00
35668;DHT22;22158;59.280;17.806;2022-09-09T13:57:57;18.50;87.50
35668;DHT22;22158;59.280;17.806;2022-09-09T14:00:24;18.40;85.90
35668;DHT22;22158;59.280;17.806;2022-09-09T14:02:50;18.40;86.90
35668;DHT22;22158;59.280;17.806;2022-09-09T14:05:17;18.30;87.00
35668;DHT22;22158;59.280;17.806;2022-09-09T14:07:43;18.40;87.10
35668;DHT22;22158;59.280;17.806;2022-09-09T14:10:10;18.30;86.10
35668;DHT22;22158;59.280;17.806;2022-09-09T14:12:36;18.30;86.90
35668;DHT22;22158;59.280;17.806;2022-09-09T14:15:03;18.50;87.60
35668;DHT22;22158;59.280;17.806;2022-09-09T14:17:31;18.50;86.40
35668;DHT22;22158;59.280;17.806;2022-09-09T14:19:58;18.30;86.30
35668;DHT22;22158;59.280;17.806;2022-09-09T14:22:24;18.40;86.80
35668;DHT22;22158;59.280;17.806;2022-09-09T14:24:51;18.40;86.90
35668;DHT22;22158;59.280;17.806;2022-09-09T14:27:17;18.30;85.70
35668;DHT22;22158;59.280;17.806;2022-09-09T14:29:44;18.30;86.30
35668;DHT22;22158;59.280;17.806;2022-09-09T14:32:11;18.00;86.80
35668;DHT22;22158;59.280;17.806;2022-09-09T14:34:37;17.80;87.90
35668;DHT22;22158;59.280;17.806;2022-09-09T14:37:02;17.50;88.30
35668;DHT22;22158;59.280;17.806;2022-09-09T14:39:28;17.50;89.30
35668;DHT22;22158;59.280;17.806;2022-09-09T14:41:54;17.70;89.20
35668;DHT22;22158;59.280;17.806;2022-09-09T14:44:20;17.70;88.30
35668;DHT22;22158;59.280;17.806;2022-09-09T14:46:46;17.60;88.50
35668;DHT22;22158;59.280;17.806;2022-09-09T14:49:11;17.50;88.50
35668;DHT22;22158;59.280;17.806;2022-09-09T14:51:38;17.30;89.50
35668;DHT22;22158;59.280;17.806;2022-09-09T14:54:04;17.20;89.90
35668;DHT22;22158;59.280;17.806;2022-09-09T14:56:32;17.10;89.70
35668;DHT22;22158;59.280;17.806;2022-09-09T14:59:02;16.90;90.00
35668;DHT22;22158;59.280;17.806;2022-09-09T15:01:28;16.90;90.30
35668;DHT22;22158;59.280;17.806;2022-09-09T15:03:57;16.70;90.70
35668;DHT22;22158;59.280;17.806;2022-09-09T15:06:25;16.50;90.90
35668;DHT22;22158;59.280;17.806;2022-09-09T15:08:53;16.50;90.60
35668;DHT22;22158;59.280;17.806;2022-09-09T15:11:19;16.40;90.80
35668;DHT22;22158;59.280;17.806;2022-09-09T15:13:46;16.40;90.80
35668;DHT22;22158;59.280;17.806;2022-09-09T15:16:17;16.20;91.10
35668;DHT22;22158;59.280;17.806;2022-09-09T15:18:44;16.10;91.10
35668;DHT22;22158;59.280;17.806;2022-09-09T15:21:16;16.00;91.20
35668;DHT22;22158;59.280;17.806;2022-09-09T15:23:44;15.80;91.40
35668;DHT22;22158;59.280;17.806;2022-09-09T15:26:10;15.80;91.50
35668;DHT22;22158;59.280;17.806;2022-09-09T15:28:38;15.70;91.90
35668;DHT22;22158;59.280;17.806;2022-09-09T15:31:08;15.60;92.10
35668;DHT22;22158;59.280;17.806;2022-09-09T15:33:34;15.50;92.10
35668;DHT22;22158;59.280;17.806;2022-09-09T15:36:25;15.40;92.30
35668;DHT22;22158;59.280;17.806;2022-09-09T15:38:52;15.50;92.50
35668;DHT22;22158;59.280;17.806;2022-09-09T15:41:19;15.70;92.50
35668;DHT22;22158;59.280;17.806;2022-09-09T15:43:50;15.90;92.40
35668;DHT22;22158;59.280;17.806;2022-09-09T15:46:23;16.10;92.10
35668;DHT22;22158;59.280;17.806;2022-09-09T15:48:50;16.30;91.80
35668;DHT22;22158;59.280;17.806;2022-09-09T15:51:16;16.20;92.00
35668;DHT22;22158;59.280;17.806;2022-09-09T15:53:42;16.30;91.60
35668;DHT22;22158;59.280;17.806;2022-09-09T15:56:08;16.20;91.20
35668;DHT22;22158;59.280;17.806;2022-09-09T15:58:35;16.00;91.60
35668;DHT22;22158;59.280;17.806;2022-09-09T16:01:02;15.90;92.00
35668;DHT22;22158;59.280;17.806;2022-09-09T16:03:40;15.70;92.40
35668;DHT22;22158;59.280;17.806;2022-09-09T16:06:08;15.50;92.50
35668;DHT22;22158;59.280;17.806;2022-09-09T16:08:38;15.50;92.50
35668;DHT22;22158;59.280;17.806;2022-09-09T16:11:09;15.30;92.50
35668;DHT22;22158;59.280;17.806;2022-09-09T16:13:35;15.20;92.60
35668;DHT22;22158;59.280;17.806;2022-09-09T16:16:02;15.10;93.00
35668;DHT22;22158;59.280;17.806;2022-09-09T16:18:42;15.10;93.00
35668;DHT22;22158;59.280;17.806;2022-09-09T16:21:17;15.00;93.20
35668;DHT22;22158;59.280;17.806;2022-09-09T16:23:44;14.90;93.20
35668;DHT22;22158;59.280;17.806;2022-09-09T16:26:14;14.60;93.40
35668;DHT22;22158;59.280;17.806;2022-09-09T16:28:40;14.60;93.70
35668;DHT22;22158;59.280;17.806;2022-09-09T16:31:08;14.50;93.60
35668;DHT22;22158;59.280;17.806;2022-09-09T16:33:35;14.50;93.80
35668;DHT22;22158;59.280;17.806;2022-09-09T16:36:12;14.40;93.90
35668;DHT22;22158;59.280;17.806;2022-09-09T16:38:39;14.40;94.00
35668;DHT22;22158;59.280;17.806;2022-09-09T16:41:06;14.30;94.20
35668;DHT22;22158;59.280;17.806;2022-09-09T16:43:34;14.30;94.10
35668;DHT22;22158;59.280;17.806;2022-09-09T16:45:59;14.20;94.20
35668;DHT22;22158;59.280;17.806;2022-09-09T16:48:32;14.10;94.10
35668;DHT22;22158;59.280;17.806;2022-09-09T16:51:03;14.10;94.30
35668;DHT22;22158;59.280;17.806;2022-09-09T16:53:31;14.00;94.50
35668;DHT22;22158;59.280;17.806;2022-09-09T16:55:57;13.90;94.80
35668;DHT22;22158;59.280;17.806;2022-09-09T16:58:22;13.90;95.00
35668;DHT22;22158;59.280;17.806;2022-09-09T17:00:48;13.80;94.80
35668;DHT22;22158;59.280;17.806;2022-09-09T17:03:14;13.80;95.00
35668;DHT22;22158;59.280;17.806;2022-09-09T17:05:41;13.70;95.10
35668;DHT22;22158;59.280;17.806;2022-09-09T17:08:07;13.70;95.20
35668;DHT22;22158;59.280;17.806;2022-09-09T17:10:32;13.60;95.30
35668;DHT22;22158;59.280;17.806;2022-09-09T17:12:58;13.50;95.50
35668;DHT22;22158;59.280;17.806;2022-09-09T17:15:24;13.50;95.80
35668;DHT22;22158;59.280;17.806;2022-09-09T17:17:50;13.40;95.90
35668;DHT22;22158;59.280;17.806;2022-09-09T17:20:18;13.30;96.00
35668;DHT22;22158;59.280;17.806;2022-09-09T17:22:44;13.20;96.40
35668;DHT22;22158;59.280;17.806;2022-09-09T17:25:10;13.20;96.40
35668;DHT22;22158;59.280;17.806;2022-09-09T17:27:36;13.10;96.60
35668;DHT22;22158;59.280;17.806;2022-09-09T17:30:02;13.10;96.60
35668;DHT22;22158;59.280;17.806;2022-09-09T17:32:28;13.00;96.90
35668;DHT22;22158;59.280;17.806;2022-09-09T17:34:55;13.00;97.00
35668;DHT22;22158;59.280;17.806;2022-09-09T17:37:21;12.90;97.20